sensor_id;sensor_type;location;lat;lon;timestamp;P1;durP1;ratioP1;P2;durP2;ratioP2
9108;SDS011;4590;51.462;6.692;2023-05-07T00:01:49;5.77;;;3.90;;
9108;SDS011;4590;51.462;6.692;2023-05-07T00:07:17;5.22;;;3.72;;
9108;SDS011;4590;51.462;6.692;2023-05-07T00:09:42;5.93;;;4.40;;
9108;SDS011;4590;51.462;6.692;2023-05-07T00:12:08;6.22;;;4.13;;
9108;SDS011;4590;51.462;6.692;2023-05-07T00:14:33;5.82;;;4.22;;
9108;SDS011;4590;51.462;6.692;2023-05-07T00:16:58;6.60;;;4.30;;
9108;SDS011;4590;51.462;6.692;2023-05-07T00:19:24;5.88;;;4.25;;
9108;SDS011;4590;51.462;6.692;2023-05-07T00:21:49;6.38;;;4.25;;
9108;SDS011;4590;51.462;6.692;2023-05-07T00:24:21;6.50;;;4.75;;
9108;SDS011;4590;51.462;6.692;2023-05-07T00:26:46;6.82;;;4.63;;
9108;SDS011;4590;51.462;6.692;2023-05-07T00:29:11;5.87;;;4.40;;
9108;SDS011;4590;51.462;6.692;2023-05-07T00:31:54;6.37;;;4.87;;
9108;SDS011;4590;51.462;6.692;2023-05-07T00:34:19;7.38;;;5.00;;
9108;SDS011;4590;51.462;6.692;2023-05-07T00:36:45;6.55;;;4.97;;
9108;SDS011;4590;51.462;6.692;2023-05-07T00:39:10;6.60;;;5.03;;
9108;SDS011;4590;51.462;6.692;2023-05-07T00:44:31;7.10;;;4.70;;
9108;SDS011;4590;51.462;6.692;2023-05-07T00:46:56;7.43;;;4.60;;
9108;SDS011;4590;51.462;6.692;2023-05-07T00:49:35;7.32;;;5.20;;
9108;SDS011;4590;51.462;6.692;2023-05-07T00:52:05;6.28;;;4.72;;
9108;SDS011;4590;51.462;6.692;2023-05-07T01:01:08;7.65;;;4.78;;
9108;SDS011;4590;51.462;6.692;2023-05-07T01:03:33;7.50;;;4.93;;
9108;SDS011;4590;51.462;6.692;2023-05-07T01:05:58;8.17;;;5.77;;
9108;SDS011;4590;51.462;6.692;2023-05-07T01:08:26;7.13;;;4.95;;
9108;SDS011;4590;51.462;6.692;2023-05-07T01:10:54;7.10;;;5.05;;
9108;SDS011;4590;51.462;6.692;2023-05-07T01:13:21;7.72;;;5.25;;
9108;SDS011;4590;51.462;6.692;2023-05-07T01:15:46;6.88;;;5.13;;
9108;SDS011;4590;51.462;6.692;2023-05-07T01:18:13;7.00;;;4.83;;
9108;SDS011;4590;51.462;6.692;2023-05-07T01:20:39;6.68;;;5.28;;
9108;SDS011;4590;51.462;6.692;2023-05-07T01:23:04;6.10;;;5.15;;
9108;SDS011;4590;51.462;6.692;2023-05-07T01:25:31;8.27;;;4.95;;
9108;SDS011;4590;51.462;6.692;2023-05-07T01:27:57;6.50;;;5.30;;
9108;SDS011;4590;51.462;6.692;2023-05-07T01:30:24;8.82;;;5.90;;
9108;SDS011;4590;51.462;6.692;2023-05-07T01:39:10;8.10;;;5.80;;
9108;SDS011;4590;51.462;6.692;2023-05-07T01:41:36;7.07;;;4.90;;
9108;SDS011;4590;51.462;6.692;2023-05-07T01:44:03;7.78;;;5.82;;
9108;SDS011;4590;51.462;6.692;2023-05-07T01:46:29;8.02;;;5.30;;
9108;SDS011;4590;51.462;6.692;2023-05-07T01:48:56;7.35;;;5.28;;
9108;SDS011;4590;51.462;6.692;2023-05-07T01:51:21;7.00;;;5.13;;
9108;SDS011;4590;51.462;6.692;2023-05-07T01:53:47;8.45;;;5.20;;
9108;SDS011;4590;51.462;6.692;2023-05-07T01:56:16;7.70;;;5.18;;
9108;SDS011;4590;51.462;6.692;2023-05-07T01:58:42;7.13;;;5.05;;
9108;SDS011;4590;51.462;6.692;2023-05-07T02:01:07;6.67;;;4.80;;
9108;SDS011;4590;51.462;6.692;2023-05-07T02:03:32;7.33;;;5.63;;
9108;SDS011;4590;51.462;6.692;2023-05-07T02:05:57;8.40;;;5.30;;
9108;SDS011;4590;51.462;6.692;2023-05-07T02:08:23;7.47;;;5.37;;
9108;SDS011;4590;51.462;6.692;2023-05-07T02:10:48;6.10;;;5.10;;
9108;SDS011;4590;51.462;6.692;2023-05-07T02:20:07;7.53;;;5.65;;
9108;SDS011;4590;51.462;6.692;2023-05-07T02:22:38;9.02;;;5.55;;
9108;SDS011;4590;51.462;6.692;2023-05-07T02:25:03;7.90;;;5.43;;
9108;SDS011;4590;51.462;6.692;2023-05-07T02:27:28;8.38;;;5.95;;
9108;SDS011;4590;51.462;6.692;2023-05-07T02:29:54;7.67;;;5.67;;
9108;SDS011;4590;51.462;6.692;2023-05-07T02:32:19;7.88;;;5.65;;
9108;SDS011;4590;51.462;6.692;2023-05-07T02:34:45;8.82;;;5.78;;
9108;SDS011;4590;51.462;6.692;2023-05-07T02:44:02;8.25;;;6.22;;
9108;SDS011;4590;51.462;6.692;2023-05-07T02:46:30;8.43;;;6.57;;
9108;SDS011;4590;51.462;6.692;2023-05-07T02:48:55;8.90;;;6.40;;
9108;SDS011;4590;51.462;6.692;2023-05-07T02:51:21;8.53;;;6.63;;
9108;SDS011;4590;51.462;6.692;2023-05-07T02:53:47;9.32;;;7.32;;
9108;SDS011;4590;51.462;6.692;2023-05-07T02:56:12;10.87;;;7.97;;
9108;SDS011;4590;51.462;6.692;2023-05-07T02:58:37;10.17;;;7.53;;
9108;SDS011;4590;51.462;6.692;2023-05-07T03:01:21;10.23;;;7.55;;
9108;SDS011;4590;51.462;6.692;2023-05-07T03:03:46;9.77;;;7.60;;
9108;SDS011;4590;51.462;6.692;2023-05-07T03:06:11;11.00;;;7.93;;
9108;SDS011;4590;51.462;6.692;2023-05-07T03:08:50;10.73;;;7.30;;
9108;SDS011;4590;51.462;6.692;2023-05-07T03:11:15;9.00;;;7.10;;
9108;SDS011;4590;51.462;6.692;2023-05-07T03:13:40;8.00;;;6.73;;
9108;SDS011;4590;51.462;6.692;2023-05-07T03:19:06;9.60;;;7.25;;
9108;SDS011;4590;51.462;6.692;2023-05-07T03:21:31;9.32;;;7.05;;
9108;SDS011;4590;51.462;6.692;2023-05-07T03:23:58;11.43;;;8.25;;
9108;SDS011;4590;51.462;6.692;2023-05-07T03:26:24;10.07;;;7.40;;
9108;SDS011;4590;51.462;6.692;2023-05-07T03:28:50;9.05;;;7.22;;
9108;SDS011;4590;51.462;6.692;2023-05-07T03:31:35;9.52;;;7.50;;
9108;SDS011;4590;51.462;6.692;2023-05-07T03:34:06;9.93;;;7.97;;
9108;SDS011;4590;51.462;6.692;2023-05-07T03:36:32;9.98;;;7.70;;
9108;SDS011;4590;51.462;6.692;2023-05-07T03:38:57;10.20;;;8.10;;
9108;SDS011;4590;51.462;6.692;2023-05-07T03:41:22;10.13;;;8.20;;
9108;SDS011;4590;51.462;6.692;2023-05-07T03:43:47;10.02;;;7.57;;
9108;SDS011;4590;51.462;6.692;2023-05-07T03:46:13;10.00;;;8.10;;
9108;SDS011;4590;51.462;6.692;2023-05-07T03:48:38;10.50;;;8.40;;
9108;SDS011;4590;51.462;6.692;2023-05-07T03:51:03;10.17;;;7.63;;
9108;SDS011;4590;51.462;6.692;2023-05-07T03:53:33;11.97;;;8.90;;
9108;SDS011;4590;51.462;6.692;2023-05-07T03:55:58;11.82;;;9.40;;
9108;SDS011;4590;51.462;6.692;2023-05-07T03:58:23;10.67;;;8.30;;
9108;SDS011;4590;51.462;6.692;2023-05-07T04:00:49;10.70;;;8.03;;
9108;SDS011;4590;51.462;6.692;2023-05-07T04:03:14;9.98;;;8.07;;
9108;SDS011;4590;51.462;6.692;2023-05-07T04:05:40;10.43;;;8.10;;
9108;SDS011;4590;51.462;6.692;2023-05-07T04:08:05;10.82;;;8.00;;
9108;SDS011;4590;51.462;6.692;2023-05-07T04:10:31;9.97;;;8.10;;
9108;SDS011;4590;51.462;6.692;2023-05-07T04:12:56;12.17;;;8.83;;
9108;SDS011;4590;51.462;6.692;2023-05-07T04:15:22;11.45;;;7.78;;
9108;SDS011;4590;51.462;6.692;2023-05-07T04:21:22;11.13;;;7.72;;
9108;SDS011;4590;51.462;6.692;2023-05-07T04:23:47;10.38;;;8.05;;
9108;SDS011;4590;51.462;6.692;2023-05-07T04:26:13;11.77;;;8.63;;
9108;SDS011;4590;51.462;6.692;2023-05-07T04:28:48;10.70;;;7.93;;
9108;SDS011;4590;51.462;6.692;2023-05-07T04:31:19;10.00;;;7.90;;
9108;SDS011;4590;51.462;6.692;2023-05-07T04:33:44;10.25;;;7.68;;
9108;SDS011;4590;51.462;6.692;2023-05-07T04:36:10;10.30;;;8.43;;
9108;SDS011;4590;51.462;6.692;2023-05-07T04:38:35;12.27;;;9.35;;
9108;SDS011;4590;51.462;6.692;2023-05-07T04:41:04;11.18;;;8.98;;
9108;SDS011;4590;51.462;6.692;2023-05-07T04:43:30;13.43;;;9.20;;
9108;SDS011;4590;51.462;6.692;2023-05-07T04:46:15;12.33;;;9.70;;
9108;SDS011;4590;51.462;6.692;2023-05-07T04:48:40;11.75;;;9.05;;
9108;SDS011;4590;51.462;6.692;2023-05-07T04:51:06;11.13;;;9.23;;
9108;SDS011;4590;51.462;6.692;2023-05-07T04:53:31;10.95;;;9.00;;
9108;SDS011;4590;51.462;6.692;2023-05-07T04:56:01;12.40;;;9.77;;
9108;SDS011;4590;51.462;6.692;2023-05-07T04:58:26;11.70;;;9.13;;
9108;SDS011;4590;51.462;6.692;2023-05-07T05:00:52;11.60;;;9.52;;
9108;SDS011;4590;51.462;6.692;2023-05-07T05:03:17;12.20;;;9.57;;
9108;SDS011;4590;51.462;6.692;2023-05-07T05:05:43;12.73;;;9.27;;
9108;SDS011;4590;51.462;6.692;2023-05-07T05:08:22;13.07;;;9.25;;
9108;SDS011;4590;51.462;6.692;2023-05-07T05:10:47;11.30;;;9.00;;
9108;SDS011;4590;51.462;6.692;2023-05-07T05:13:14;13.55;;;9.20;;
9108;SDS011;4590;51.462;6.692;2023-05-07T05:19:06;10.93;;;8.68;;
9108;SDS011;4590;51.462;6.692;2023-05-07T05:21:31;11.70;;;9.27;;
9108;SDS011;4590;51.462;6.692;2023-05-07T05:23:57;13.80;;;9.10;;
9108;SDS011;4590;51.462;6.692;2023-05-07T05:26:23;12.65;;;9.57;;
9108;SDS011;4590;51.462;6.692;2023-05-07T05:28:48;10.90;;;9.10;;
9108;SDS011;4590;51.462;6.692;2023-05-07T05:31:30;11.77;;;9.70;;
9108;SDS011;4590;51.462;6.692;2023-05-07T05:33:55;11.90;;;9.07;;
9108;SDS011;4590;51.462;6.692;2023-05-07T05:36:20;12.43;;;9.50;;
9108;SDS011;4590;51.462;6.692;2023-05-07T05:38:46;12.33;;;9.63;;
9108;SDS011;4590;51.462;6.692;2023-05-07T05:41:13;13.50;;;9.07;;
9108;SDS011;4590;51.462;6.692;2023-05-07T05:43:38;13.82;;;10.07;;
9108;SDS011;4590;51.462;6.692;2023-05-07T05:46:03;15.43;;;10.90;;
9108;SDS011;4590;51.462;6.692;2023-05-07T05:48:35;15.55;;;10.82;;
9108;SDS011;4590;51.462;6.692;2023-05-07T05:51:00;15.02;;;10.93;;
9108;SDS011;4590;51.462;6.692;2023-05-07T05:53:25;13.90;;;10.20;;
9108;SDS011;4590;51.462;6.692;2023-05-07T05:55:51;15.27;;;10.37;;
9108;SDS011;4590;51.462;6.692;2023-05-07T05:58:16;13.70;;;9.77;;
9108;SDS011;4590;51.462;6.692;2023-05-07T06:00:41;12.07;;;8.80;;
9108;SDS011;4590;51.462;6.692;2023-05-07T06:03:07;12.80;;;9.53;;
9108;SDS011;4590;51.462;6.692;2023-05-07T06:05:32;11.83;;;8.77;;
9108;SDS011;4590;51.462;6.692;2023-05-07T06:07:57;10.93;;;8.03;;
9108;SDS011;4590;51.462;6.692;2023-05-07T06:10:22;9.40;;;8.15;;
9108;SDS011;4590;51.462;6.692;2023-05-07T06:18:40;9.18;;;7.07;;
9108;SDS011;4590;51.462;6.692;2023-05-07T06:21:05;10.33;;;7.93;;
9108;SDS011;4590;51.462;6.692;2023-05-07T06:23:30;12.23;;;8.20;;
9108;SDS011;4590;51.462;6.692;2023-05-07T06:26:14;10.67;;;7.53;;
9108;SDS011;4590;51.462;6.692;2023-05-07T06:28:39;11.82;;;7.65;;
9108;SDS011;4590;51.462;6.692;2023-05-07T06:31:13;10.40;;;6.53;;
9108;SDS011;4590;51.462;6.692;2023-05-07T06:34:00;8.73;;;6.53;;
9108;SDS011;4590;51.462;6.692;2023-05-07T06:36:27;8.55;;;6.20;;
9108;SDS011;4590;51.462;6.692;2023-05-07T06:38:52;7.88;;;5.88;;
9108;SDS011;4590;51.462;6.692;2023-05-07T06:41:17;7.50;;;5.20;;
9108;SDS011;4590;51.462;6.692;2023-05-07T06:43:43;8.77;;;5.07;;
9108;SDS011;4590;51.462;6.692;2023-05-07T06:46:08;8.40;;;5.00;;
9108;SDS011;4590;51.462;6.692;2023-05-07T06:48:33;8.17;;;5.30;;
9108;SDS011;4590;51.462;6.692;2023-05-07T06:54:23;7.40;;;4.90;;
9108;SDS011;4590;51.462;6.692;2023-05-07T06:56:48;5.83;;;4.37;;
9108;SDS011;4590;51.462;6.692;2023-05-07T06:59:13;9.37;;;4.70;;
9108;SDS011;4590;51.462;6.692;2023-05-07T07:01:39;6.37;;;4.60;;
9108;SDS011;4590;51.462;6.692;2023-05-07T07:04:04;7.43;;;4.30;;
9108;SDS011;4590;51.462;6.692;2023-05-07T07:06:29;7.72;;;4.47;;
9108;SDS011;4590;51.462;6.692;2023-05-07T07:08:56;7.18;;;4.50;;
9108;SDS011;4590;51.462;6.692;2023-05-07T07:11:22;6.07;;;4.22;;
9108;SDS011;4590;51.462;6.692;2023-05-07T07:13:47;6.60;;;4.10;;
9108;SDS011;4590;51.462;6.692;2023-05-07T07:16:12;6.73;;;4.10;;
9108;SDS011;4590;51.462;6.692;2023-05-07T07:18:38;5.80;;;3.67;;
9108;SDS011;4590;51.462;6.692;2023-05-07T07:21:03;5.53;;;3.90;;
9108;SDS011;4590;51.462;6.692;2023-05-07T07:23:28;6.20;;;3.63;;
9108;SDS011;4590;51.462;6.692;2023-05-07T07:25:59;5.75;;;3.38;;
9108;SDS011;4590;51.462;6.692;2023-05-07T07:28:24;5.88;;;3.75;;
9108;SDS011;4590;51.462;6.692;2023-05-07T07:30:49;5.60;;;3.90;;
9108;SDS011;4590;51.462;6.692;2023-05-07T07:36:06;7.78;;;4.05;;
9108;SDS011;4590;51.462;6.692;2023-05-07T07:38:32;5.35;;;4.00;;
9108;SDS011;4590;51.462;6.692;2023-05-07T07:40:57;6.15;;;3.63;;
9108;SDS011;4590;51.462;6.692;2023-05-07T07:45:48;4.93;;;3.23;;
9108;SDS011;4590;51.462;6.692;2023-05-07T07:48:20;5.50;;;3.63;;
9108;SDS011;4590;51.462;6.692;2023-05-07T07:50:48;5.63;;;3.10;;
9108;SDS011;4590;51.462;6.692;2023-05-07T07:53:14;7.05;;;3.95;;
9108;SDS011;4590;51.462;6.692;2023-05-07T07:58:06;5.20;;;3.20;;
9108;SDS011;4590;51.462;6.692;2023-05-07T08:02:56;6.50;;;3.27;;
9108;SDS011;4590;51.462;6.692;2023-05-07T08:07:47;5.15;;;2.53;;
9108;SDS011;4590;51.462;6.692;2023-05-07T08:10:18;4.15;;;1.88;;
9108;SDS011;4590;51.462;6.692;2023-05-07T08:12:46;3.15;;;2.15;;
9108;SDS011;4590;51.462;6.692;2023-05-07T08:15:15;4.88;;;3.00;;
9108;SDS011;4590;51.462;6.692;2023-05-07T08:20:06;4.32;;;2.20;;
9108;SDS011;4590;51.462;6.692;2023-05-07T08:22:32;3.67;;;2.05;;
9108;SDS011;4590;51.462;6.692;2023-05-07T08:24:59;5.22;;;1.92;;
9108;SDS011;4590;51.462;6.692;2023-05-07T08:29:50;3.20;;;1.75;;
9108;SDS011;4590;51.462;6.692;2023-05-07T08:34:40;2.20;;;1.40;;
9108;SDS011;4590;51.462;6.692;2023-05-07T08:39:31;5.50;;;1.50;;
9108;SDS011;4590;51.462;6.692;2023-05-07T08:44:26;4.43;;;1.80;;
9108;SDS011;4590;51.462;6.692;2023-05-07T08:46:54;2.83;;;2.00;;
9108;SDS011;4590;51.462;6.692;2023-05-07T08:49:21;2.78;;;1.88;;
9108;SDS011;4590;51.462;6.692;2023-05-07T08:54:12;3.30;;;1.90;;
9108;SDS011;4590;51.462;6.692;2023-05-07T08:56:41;3.85;;;1.80;;
9108;SDS011;4590;51.462;6.692;2023-05-07T09:01:31;4.07;;;1.80;;
9108;SDS011;4590;51.462;6.692;2023-05-07T09:06:23;4.25;;;2.63;;
9108;SDS011;4590;51.462;6.692;2023-05-07T09:08:49;5.85;;;2.45;;
9108;SDS011;4590;51.462;6.692;2023-05-07T09:11:16;4.85;;;2.15;;
9108;SDS011;4590;51.462;6.692;2023-05-07T09:13:42;5.10;;;2.58;;
9108;SDS011;4590;51.462;6.692;2023-05-07T09:16:11;3.33;;;2.13;;
9108;SDS011;4590;51.462;6.692;2023-05-07T09:18:40;4.85;;;2.40;;
9108;SDS011;4590;51.462;6.692;2023-05-07T09:21:10;3.13;;;2.20;;
9108;SDS011;4590;51.462;6.692;2023-05-07T09:23:36;4.18;;;2.10;;
9108;SDS011;4590;51.462;6.692;2023-05-07T09:26:01;3.85;;;1.80;;
9108;SDS011;4590;51.462;6.692;2023-05-07T09:28:27;4.25;;;1.95;;
9108;SDS011;4590;51.462;6.692;2023-05-07T09:30:52;3.60;;;1.80;;
9108;SDS011;4590;51.462;6.692;2023-05-07T09:33:17;4.05;;;1.80;;
9108;SDS011;4590;51.462;6.692;2023-05-07T09:35:42;3.15;;;1.75;;
9108;SDS011;4590;51.462;6.692;2023-05-07T09:38:08;3.28;;;1.75;;
9108;SDS011;4590;51.462;6.692;2023-05-07T09:40:33;2.42;;;1.60;;
9108;SDS011;4590;51.462;6.692;2023-05-07T09:43:11;4.25;;;1.45;;
9108;SDS011;4590;51.462;6.692;2023-05-07T09:45:37;2.28;;;1.27;;
9108;SDS011;4590;51.462;6.692;2023-05-07T09:48:04;2.88;;;1.70;;
9108;SDS011;4590;51.462;6.692;2023-05-07T09:50:36;2.67;;;1.33;;
9108;SDS011;4590;51.462;6.692;2023-05-07T09:53:11;3.28;;;1.60;;
9108;SDS011;4590;51.462;6.692;2023-05-07T09:55:37;3.70;;;1.60;;
9108;SDS011;4590;51.462;6.692;2023-05-07T09:58:02;2.40;;;1.50;;
9108;SDS011;4590;51.462;6.692;2023-05-07T10:00:30;2.30;;;1.45;;
9108;SDS011;4590;51.462;6.692;2023-05-07T10:02:56;3.67;;;2.00;;
9108;SDS011;4590;51.462;6.692;2023-05-07T10:05:23;2.30;;;1.38;;
9108;SDS011;4590;51.462;6.692;2023-05-07T10:07:49;3.42;;;1.42;;
9108;SDS011;4590;51.462;6.692;2023-05-07T10:10:15;2.22;;;1.02;;
9108;SDS011;4590;51.462;6.692;2023-05-07T10:12:41;1.90;;;0.93;;
9108;SDS011;4590;51.462;6.692;2023-05-07T10:15:09;2.67;;;1.25;;
9108;SDS011;4590;51.462;6.692;2023-05-07T10:17:36;2.35;;;1.20;;
9108;SDS011;4590;51.462;6.692;2023-05-07T10:20:03;2.92;;;1.08;;
9108;SDS011;4590;51.462;6.692;2023-05-07T10:22:38;2.03;;;1.40;;
9108;SDS011;4590;51.462;6.692;2023-05-07T10:25:09;2.17;;;1.30;;
9108;SDS011;4590;51.462;6.692;2023-05-07T10:27:40;2.65;;;1.50;;
9108;SDS011;4590;51.462;6.692;2023-05-07T10:30:14;2.85;;;1.25;;
9108;SDS011;4590;51.462;6.692;2023-05-07T10:33:01;2.45;;;1.20;;
9108;SDS011;4590;51.462;6.692;2023-05-07T10:35:31;2.05;;;1.40;;
9108;SDS011;4590;51.462;6.692;2023-05-07T10:38:02;1.45;;;1.15;;
9108;SDS011;4590;51.462;6.692;2023-05-07T10:40:29;1.73;;;1.15;;
9108;SDS011;4590;51.462;6.692;2023-05-07T10:42:56;2.97;;;1.20;;
9108;SDS011;4590;51.462;6.692;2023-05-07T10:45:25;2.92;;;1.33;;
9108;SDS011;4590;51.462;6.692;2023-05-07T10:50:40;2.92;;;1.50;;
9108;SDS011;4590;51.462;6.692;2023-05-07T10:55:43;1.60;;;1.23;;
9108;SDS011;4590;51.462;6.692;2023-05-07T10:58:23;2.80;;;1.42;;
9108;SDS011;4590;51.462;6.692;2023-05-07T11:00:56;2.40;;;1.52;;
9108;SDS011;4590;51.462;6.692;2023-05-07T11:03:23;2.00;;;1.23;;
9108;SDS011;4590;51.462;6.692;2023-05-07T11:05:55;4.32;;;1.20;;
9108;SDS011;4590;51.462;6.692;2023-05-07T11:11:17;2.72;;;1.50;;
9108;SDS011;4590;51.462;6.692;2023-05-07T11:13:45;3.92;;;1.60;;
9108;SDS011;4590;51.462;6.692;2023-05-07T11:18:50;3.35;;;1.80;;
9108;SDS011;4590;51.462;6.692;2023-05-07T11:21:36;4.88;;;1.73;;
9108;SDS011;4590;51.462;6.692;2023-05-07T11:24:09;3.00;;;1.98;;
9108;SDS011;4590;51.462;6.692;2023-05-07T11:26:48;2.70;;;1.67;;
9108;SDS011;4590;51.462;6.692;2023-05-07T11:29:15;3.05;;;2.20;;
9108;SDS011;4590;51.462;6.692;2023-05-07T11:31:42;3.25;;;1.90;;
9108;SDS011;4590;51.462;6.692;2023-05-07T11:34:08;11.60;;;5.85;;
9108;SDS011;4590;51.462;6.692;2023-05-07T11:36:34;11.13;;;6.65;;
9108;SDS011;4590;51.462;6.692;2023-05-07T11:39:05;9.02;;;5.63;;
9108;SDS011;4590;51.462;6.692;2023-05-07T11:41:36;4.13;;;2.42;;
9108;SDS011;4590;51.462;6.692;2023-05-07T11:44:02;3.92;;;1.92;;
9108;SDS011;4590;51.462;6.692;2023-05-07T11:46:27;2.40;;;1.50;;
9108;SDS011;4590;51.462;6.692;2023-05-07T11:48:53;2.75;;;1.45;;
9108;SDS011;4590;51.462;6.692;2023-05-07T11:51:20;2.30;;;1.30;;
9108;SDS011;4590;51.462;6.692;2023-05-07T11:53:46;2.20;;;1.52;;
9108;SDS011;4590;51.462;6.692;2023-05-07T11:56:12;4.25;;;2.92;;
9108;SDS011;4590;51.462;6.692;2023-05-07T11:58:40;27.80;;;16.70;;
9108;SDS011;4590;51.462;6.692;2023-05-07T12:01:10;5.35;;;4.00;;
9108;SDS011;4590;51.462;6.692;2023-05-07T12:03:36;4.55;;;2.55;;
9108;SDS011;4590;51.462;6.692;2023-05-07T12:06:02;2.80;;;1.42;;
9108;SDS011;4590;51.462;6.692;2023-05-07T12:08:30;2.55;;;1.50;;
9108;SDS011;4590;51.462;6.692;2023-05-07T12:10:55;1.80;;;1.10;;
9108;SDS011;4590;51.462;6.692;2023-05-07T12:13:21;2.03;;;1.33;;
9108;SDS011;4590;51.462;6.692;2023-05-07T12:15:50;3.40;;;1.70;;
9108;SDS011;4590;51.462;6.692;2023-05-07T12:18:17;2.60;;;1.40;;
9108;SDS011;4590;51.462;6.692;2023-05-07T12:20:43;2.28;;;1.33;;
9108;SDS011;4590;51.462;6.692;2023-05-07T12:23:08;1.88;;;1.20;;
9108;SDS011;4590;51.462;6.692;2023-05-07T12:25:38;3.22;;;1.45;;
9108;SDS011;4590;51.462;6.692;2023-05-07T12:28:05;2.28;;;1.70;;
9108;SDS011;4590;51.462;6.692;2023-05-07T12:30:37;3.17;;;1.48;;
9108;SDS011;4590;51.462;6.692;2023-05-07T12:33:03;2.97;;;1.50;;
9108;SDS011;4590;51.462;6.692;2023-05-07T12:35:32;2.58;;;1.35;;
9108;SDS011;4590;51.462;6.692;2023-05-07T12:38:04;2.50;;;1.27;;
9108;SDS011;4590;51.462;6.692;2023-05-07T12:40:40;2.15;;;1.30;;
9108;SDS011;4590;51.462;6.692;2023-05-07T12:43:06;1.95;;;1.25;;
9108;SDS011;4590;51.462;6.692;2023-05-07T12:45:38;2.67;;;1.48;;
9108;SDS011;4590;51.462;6.692;2023-05-07T12:48:04;4.72;;;1.52;;
9108;SDS011;4590;51.462;6.692;2023-05-07T12:50:32;2.97;;;1.40;;
9108;SDS011;4590;51.462;6.692;2023-05-07T12:52:58;2.13;;;1.20;;
9108;SDS011;4590;51.462;6.692;2023-05-07T12:55:24;4.00;;;1.20;;
9108;SDS011;4590;51.462;6.692;2023-05-07T12:57:49;2.05;;;1.08;;
9108;SDS011;4590;51.462;6.692;2023-05-07T13:00:16;1.52;;;0.90;;
9108;SDS011;4590;51.462;6.692;2023-05-07T13:02:42;1.60;;;0.95;;
9108;SDS011;4590;51.462;6.692;2023-05-07T13:05:11;1.63;;;0.98;;
9108;SDS011;4590;51.462;6.692;2023-05-07T13:07:37;1.83;;;1.05;;
9108;SDS011;4590;51.462;6.692;2023-05-07T13:10:03;3.30;;;1.38;;
9108;SDS011;4590;51.462;6.692;2023-05-07T13:12:29;4.78;;;1.20;;
9108;SDS011;4590;51.462;6.692;2023-05-07T13:14:54;1.92;;;1.30;;
9108;SDS011;4590;51.462;6.692;2023-05-07T13:17:19;3.15;;;1.77;;
9108;SDS011;4590;51.462;6.692;2023-05-07T13:19:45;3.70;;;2.10;;
9108;SDS011;4590;51.462;6.692;2023-05-07T13:22:10;6.85;;;2.30;;
9108;SDS011;4590;51.462;6.692;2023-05-07T13:24:35;4.22;;;2.20;;
9108;SDS011;4590;51.462;6.692;2023-05-07T13:27:01;3.00;;;1.48;;
9108;SDS011;4590;51.462;6.692;2023-05-07T13:29:26;2.35;;;1.38;;
9108;SDS011;4590;51.462;6.692;2023-05-07T13:31:55;2.55;;;1.73;;
9108;SDS011;4590;51.462;6.692;2023-05-07T13:34:21;2.88;;;1.35;;
9108;SDS011;4590;51.462;6.692;2023-05-07T13:36:47;3.75;;;1.80;;
9108;SDS011;4590;51.462;6.692;2023-05-07T13:39:12;2.30;;;1.55;;
9108;SDS011;4590;51.462;6.692;2023-05-07T13:41:37;2.92;;;1.60;;
9108;SDS011;4590;51.462;6.692;2023-05-07T13:44:03;2.65;;;1.70;;
9108;SDS011;4590;51.462;6.692;2023-05-07T13:46:28;1.95;;;1.50;;
9108;SDS011;4590;51.462;6.692;2023-05-07T13:48:54;3.25;;;1.63;;
9108;SDS011;4590;51.462;6.692;2023-05-07T13:51:20;3.13;;;1.85;;
9108;SDS011;4590;51.462;6.692;2023-05-07T13:53:45;2.63;;;1.40;;
9108;SDS011;4590;51.462;6.692;2023-05-07T13:56:10;2.72;;;2.00;;
9108;SDS011;4590;51.462;6.692;2023-05-07T14:12:21;3.25;;;2.45;;
9108;SDS011;4590;51.462;6.692;2023-05-07T14:14:48;4.28;;;2.35;;
9108;SDS011;4590;51.462;6.692;2023-05-07T14:17:15;4.70;;;2.40;;
9108;SDS011;4590;51.462;6.692;2023-05-07T14:19:41;6.13;;;2.88;;
9108;SDS011;4590;51.462;6.692;2023-05-07T14:24:38;4.28;;;2.30;;
9108;SDS011;4590;51.462;6.692;2023-05-07T14:27:04;4.43;;;2.75;;
9108;SDS011;4590;51.462;6.692;2023-05-07T14:29:30;4.43;;;2.95;;
9108;SDS011;4590;51.462;6.692;2023-05-07T14:34:21;5.27;;;2.90;;
9108;SDS011;4590;51.462;6.692;2023-05-07T14:36:46;2.97;;;2.20;;
9108;SDS011;4590;51.462;6.692;2023-05-07T14:39:11;3.55;;;1.90;;
9108;SDS011;4590;51.462;6.692;2023-05-07T14:44:03;3.08;;;2.10;;
9108;SDS011;4590;51.462;6.692;2023-05-07T14:48:54;4.75;;;3.08;;
9108;SDS011;4590;51.462;6.692;2023-05-07T14:56:34;4.45;;;3.20;;
9108;SDS011;4590;51.462;6.692;2023-05-07T15:01:37;5.33;;;3.17;;
9108;SDS011;4590;51.462;6.692;2023-05-07T15:04:05;4.25;;;3.08;;
9108;SDS011;4590;51.462;6.692;2023-05-07T15:06:31;4.22;;;3.40;;
9108;SDS011;4590;51.462;6.692;2023-05-07T15:08:57;4.70;;;2.90;;
9108;SDS011;4590;51.462;6.692;2023-05-07T15:14:17;4.43;;;2.72;;
9108;SDS011;4590;51.462;6.692;2023-05-07T15:19:08;4.57;;;3.07;;
9108;SDS011;4590;51.462;6.692;2023-05-07T15:23:59;5.32;;;3.35;;
9108;SDS011;4590;51.462;6.692;2023-05-07T15:33:03;4.43;;;3.08;;
9108;SDS011;4590;51.462;6.692;2023-05-07T15:35:30;5.90;;;3.60;;
9108;SDS011;4590;51.462;6.692;2023-05-07T15:37:56;5.00;;;3.50;;
9108;SDS011;4590;51.462;6.692;2023-05-07T15:42:46;7.17;;;3.93;;
9108;SDS011;4590;51.462;6.692;2023-05-07T15:45:12;8.95;;;5.03;;
9108;SDS011;4590;51.462;6.692;2023-05-07T15:50:03;6.13;;;4.13;;
9108;SDS011;4590;51.462;6.692;2023-05-07T15:55:03;5.00;;;3.70;;
9108;SDS011;4590;51.462;6.692;2023-05-07T15:57:30;5.45;;;3.90;;
9108;SDS011;4590;51.462;6.692;2023-05-07T16:02:38;6.80;;;4.03;;
9108;SDS011;4590;51.462;6.692;2023-05-07T16:05:05;5.10;;;3.65;;
9108;SDS011;4590;51.462;6.692;2023-05-07T16:07:35;6.50;;;3.88;;
9108;SDS011;4590;51.462;6.692;2023-05-07T16:10:01;5.35;;;4.25;;
9108;SDS011;4590;51.462;6.692;2023-05-07T16:12:28;6.15;;;4.15;;
9108;SDS011;4590;51.462;6.692;2023-05-07T16:17:18;7.37;;;4.47;;
9108;SDS011;4590;51.462;6.692;2023-05-07T16:22:24;5.53;;;4.50;;
9108;SDS011;4590;51.462;6.692;2023-05-07T16:24:50;5.65;;;4.55;;
9108;SDS011;4590;51.462;6.692;2023-05-07T16:29:41;5.97;;;4.20;;
9108;SDS011;4590;51.462;6.692;2023-05-07T16:34:32;4.90;;;3.75;;
9108;SDS011;4590;51.462;6.692;2023-05-07T16:39:41;6.75;;;4.45;;
9108;SDS011;4590;51.462;6.692;2023-05-07T16:44:31;6.82;;;5.00;;
9108;SDS011;4590;51.462;6.692;2023-05-07T16:49:22;5.80;;;4.23;;
9108;SDS011;4590;51.462;6.692;2023-05-07T16:54:12;8.63;;;5.03;;
9108;SDS011;4590;51.462;6.692;2023-05-07T16:59:15;5.73;;;4.40;;
9108;SDS011;4590;51.462;6.692;2023-05-07T17:04:13;6.80;;;4.72;;
9108;SDS011;4590;51.462;6.692;2023-05-07T17:09:57;7.30;;;4.65;;
9108;SDS011;4590;51.462;6.692;2023-05-07T17:14:50;7.25;;;4.68;;
9108;SDS011;4590;51.462;6.692;2023-05-07T17:17:15;6.80;;;4.45;;
9108;SDS011;4590;51.462;6.692;2023-05-07T17:22:20;6.57;;;4.93;;
9108;SDS011;4590;51.462;6.692;2023-05-07T17:27:51;6.85;;;4.30;;
9108;SDS011;4590;51.462;6.692;2023-05-07T17:30:17;6.63;;;4.50;;
9108;SDS011;4590;51.462;6.692;2023-05-07T17:35:48;7.35;;;4.25;;
9108;SDS011;4590;51.462;6.692;2023-05-07T17:38:40;7.07;;;4.35;;
9108;SDS011;4590;51.462;6.692;2023-05-07T17:43:31;4.75;;;3.45;;
9108;SDS011;4590;51.462;6.692;2023-05-07T17:48:23;5.73;;;3.23;;
9108;SDS011;4590;51.462;6.692;2023-05-07T17:53:39;5.15;;;2.80;;
9108;SDS011;4590;51.462;6.692;2023-05-07T18:23:29;6.93;;;5.57;;
9108;SDS011;4590;51.462;6.692;2023-05-07T18:25:54;7.05;;;5.85;;
9108;SDS011;4590;51.462;6.692;2023-05-07T18:34:16;6.43;;;4.90;;
9108;SDS011;4590;51.462;6.692;2023-05-07T18:36:42;8.88;;;4.82;;
9108;SDS011;4590;51.462;6.692;2023-05-07T18:41:33;5.60;;;4.25;;
9108;SDS011;4590;51.462;6.692;2023-05-07T18:43:59;5.43;;;3.97;;
9108;SDS011;4590;51.462;6.692;2023-05-07T18:46:24;5.27;;;3.93;;
9108;SDS011;4590;51.462;6.692;2023-05-07T18:49:05;5.50;;;3.77;;
9108;SDS011;4590;51.462;6.692;2023-05-07T18:51:30;5.93;;;3.75;;
9108;SDS011;4590;51.462;6.692;2023-05-07T18:53:56;5.15;;;3.45;;
9108;SDS011;4590;51.462;6.692;2023-05-07T18:56:21;4.50;;;3.87;;
9108;SDS011;4590;51.462;6.692;2023-05-07T19:07:13;5.97;;;4.35;;
9108;SDS011;4590;51.462;6.692;2023-05-07T19:13:01;6.65;;;4.13;;
9108;SDS011;4590;51.462;6.692;2023-05-07T19:18:51;4.47;;;3.80;;
9108;SDS011;4590;51.462;6.692;2023-05-07T19:24:41;4.30;;;3.80;;